createdAt,value
2019-02-21T00:01:49.415Z,56.12
2019-02-21T00:04:21.612Z,56.21
2019-02-21T00:06:53.649Z,56.33
2019-02-21T00:09:25.373Z,56.46
2019-02-21T00:11:57.343Z,56.55
2019-02-21T00:14:29.359Z,56.57
2019-02-21T00:17:01.068Z,56.57
2019-02-21T00:19:33.081Z,56.56
2019-02-21T00:22:05.087Z,56.52
2019-02-21T00:24:37.040Z,56.49
2019-02-21T00:27:08.873Z,56.46
2019-02-21T00:29:40.663Z,56.47
2019-02-21T00:32:12.375Z,56.54
2019-02-21T00:34:44.402Z,56.62
2019-02-21T00:37:16.033Z,56.68
2019-02-21T00:39:48.571Z,56.73
2019-02-21T00:42:21.599Z,56.80
2019-02-21T00:44:55.725Z,56.87
2019-02-21T00:47:27.390Z,56.91
2019-02-21T00:49:59.761Z,56.88
2019-02-21T00:52:31.606Z,56.85
2019-02-21T00:55:03.639Z,56.87
2019-02-21T00:57:35.326Z,56.92
2019-02-21T01:00:08.679Z,56.99
2019-02-21T01:02:41.710Z,57.07
2019-02-21T01:05:13.810Z,57.06
2019-02-21T01:07:46.551Z,57.03
2019-02-21T01:10:18.578Z,57.05
2019-02-21T01:12:52.030Z,57.11
2019-02-21T01:15:29.106Z,57.16
2019-02-21T01:18:00.739Z,57.19
2019-02-21T01:20:33.333Z,57.15
2019-02-21T01:23:06.420Z,57.19
2019-02-21T01:25:38.302Z,57.26
2019-02-21T01:28:11.206Z,57.34
2019-02-21T01:30:43.245Z,57.39
2019-02-21T01:33:16.154Z,57.38
2019-02-21T01:35:48.253Z,57.31
2019-02-21T01:38:22.989Z,57.23
2019-02-21T01:40:54.983Z,57.21
2019-02-21T01:43:26.619Z,57.16
2019-02-21T01:45:58.250Z,57.17
2019-02-21T01:48:29.885Z,57.22
2019-02-21T01:51:01.552Z,57.32
2019-02-21T01:53:33.500Z,57.44
2019-02-21T01:56:05.103Z,57.58
2019-02-21T01:58:36.844Z,57.70
2019-02-21T02:01:09.084Z,57.83
2019-02-21T02:03:42.571Z,57.90
2019-02-21T02:06:14.213Z,57.90
2019-02-21T02:08:46.514Z,57.92
2019-02-21T02:11:18.194Z,57.96
2019-02-21T02:13:50.355Z,58.07
2019-02-21T02:16:23.903Z,58.13
2019-02-21T02:18:57.002Z,58.17
2019-02-21T02:21:29.362Z,58.21
2019-02-21T02:24:01.219Z,58.23
2019-02-21T02:26:34.016Z,58.17
2019-02-21T02:29:05.980Z,58.11
2019-02-21T02:31:37.623Z,58.07
2019-02-21T02:34:09.220Z,58.04
2019-02-21T02:36:41.215Z,58.02
2019-02-21T02:39:14.581Z,58.06
2019-02-21T02:41:46.521Z,58.14
2019-02-21T02:44:18.682Z,58.12
2019-02-21T02:46:50.342Z,58.12
2019-02-21T02:49:22.009Z,58.15
2019-02-21T02:51:53.597Z,58.21
2019-02-21T02:54:25.282Z,58.24
2019-02-21T02:56:56.921Z,58.28
2019-02-21T02:59:40.250Z,58.28
2019-02-21T03:02:02.321Z,58.29
2019-02-21T03:04:34.018Z,58.29
2019-02-21T03:07:05.644Z,58.21
2019-02-21T03:09:37.279Z,58.15
2019-02-21T03:12:09.287Z,58.13
2019-02-21T03:14:40.936Z,58.08
2019-02-21T03:17:12.666Z,58.06
2019-02-21T03:19:44.645Z,58.11
2019-02-21T03:22:16.283Z,58.18
2019-02-21T03:24:48.193Z,58.25
2019-02-21T03:27:19.848Z,58.23
2019-02-21T03:29:51.520Z,58.22
2019-02-21T03:32:23.633Z,58.29
2019-02-21T03:34:55.682Z,58.37
2019-02-21T03:37:27.282Z,58.48
2019-02-21T03:39:58.900Z,58.50
2019-02-21T03:42:30.586Z,58.52
2019-02-21T03:45:02.536Z,58.51
2019-02-21T03:47:34.327Z,58.51
2019-02-21T03:50:07.381Z,58.53
2019-02-21T03:52:39.054Z,58.53
2019-02-21T03:55:10.662Z,58.55
2019-02-21T03:57:44.311Z,58.63
2019-02-21T04:00:16.165Z,58.66
2019-02-21T04:02:47.915Z,58.71
2019-02-21T04:05:20.858Z,58.72
2019-02-21T04:07:52.970Z,58.77
2019-02-21T04:10:26.054Z,58.74
2019-02-21T04:12:57.828Z,58.80
2019-02-21T04:15:30.997Z,58.81
2019-02-21T04:23:06.173Z,59.00
2019-02-21T04:25:37.950Z,59.02
2019-02-21T04:28:10.285Z,59.10
2019-02-21T04:30:41.966Z,59.12
2019-02-21T04:33:13.909Z,59.14
2019-02-21T04:35:45.492Z,59.11
2019-02-21T04:38:17.136Z,59.09
2019-02-21T04:40:48.736Z,59.09
2019-02-21T04:43:20.785Z,59.11
2019-02-21T04:45:53.527Z,59.04
2019-02-21T04:48:25.600Z,59.00
2019-02-21T04:50:57.320Z,58.92
2019-02-21T04:53:29.341Z,58.91
2019-02-21T04:56:01.177Z,58.90
2019-02-21T04:58:32.859Z,58.88
2019-02-21T05:01:04.534Z,58.88
2019-02-21T05:03:36.996Z,58.84
2019-02-21T05:06:08.646Z,58.84
2019-02-21T05:08:40.324Z,58.81
2019-02-21T05:11:12.060Z,58.86
2019-02-21T05:13:45.271Z,58.96
2019-02-21T05:16:16.964Z,59.01
2019-02-21T05:18:48.588Z,59.06
2019-02-21T05:21:21.659Z,59.11
2019-02-21T05:23:53.344Z,59.17
2019-02-21T05:26:39.724Z,59.22
2019-02-21T05:29:12.772Z,59.29
2019-02-21T05:32:01.330Z,59.31
2019-02-21T05:34:40.711Z,59.34
2019-02-21T05:37:37.301Z,59.32
2019-02-21T05:40:28.957Z,59.36
2019-02-21T05:43:16.527Z,59.34
2019-02-21T05:46:01.869Z,59.35
2019-02-21T05:48:58.769Z,59.37
2019-02-21T05:51:35.354Z,59.35
2019-02-21T05:54:17.826Z,59.33
2019-02-21T05:57:07.563Z,59.34
2019-02-21T05:59:54.724Z,59.34
2019-02-21T06:02:53.422Z,59.34
2019-02-21T06:05:43.444Z,59.37
2019-02-21T06:08:33.987Z,59.34
2019-02-21T06:11:26.918Z,59.37
2019-02-21T06:14:13.938Z,59.45
2019-02-21T06:17:08.216Z,59.48
2019-02-21T06:20:04.550Z,59.50
2019-02-21T06:22:55.312Z,59.56
2019-02-21T06:25:52.992Z,59.62
2019-02-21T06:28:27.970Z,59.67
2019-02-21T06:31:09.818Z,59.70
2019-02-21T06:33:42.201Z,59.78
2019-02-21T06:36:14.330Z,59.86
2019-02-21T06:38:46.598Z,59.92
2019-02-21T06:41:18.358Z,59.97
2019-02-21T06:43:52.593Z,60.05
2019-02-21T06:46:24.768Z,60.09
2019-02-21T06:48:57.040Z,60.08
2019-02-21T06:51:28.869Z,60.09
2019-02-21T06:54:00.531Z,60.11
2019-02-21T06:56:32.407Z,60.12
2019-02-21T06:59:04.064Z,60.10
2019-02-21T07:01:36.327Z,60.11
2019-02-21T07:04:08.757Z,60.11
2019-02-21T07:06:40.375Z,60.12
2019-02-21T07:09:12.133Z,60.15
2019-02-21T07:11:45.957Z,60.15
2019-02-21T07:14:18.510Z,60.17
2019-02-21T07:16:50.932Z,60.16
2019-02-21T07:19:23.408Z,60.21
2019-02-21T07:21:55.063Z,60.21
2019-02-21T07:24:27.061Z,60.23
2019-02-21T07:26:59.168Z,60.24
2019-02-21T07:29:32.599Z,60.24
2019-02-21T07:32:07.808Z,60.26
2019-02-21T07:34:40.126Z,60.23
2019-02-21T07:37:18.533Z,60.21
2019-02-21T07:39:46.319Z,60.19
2019-02-21T07:42:17.955Z,60.15
2019-02-21T07:44:49.752Z,60.13
2019-02-21T07:47:21.558Z,60.12
2019-02-21T07:49:53.903Z,60.13
2019-02-21T07:52:26.227Z,60.15
2019-02-21T07:55:01.840Z,60.13
2019-02-21T07:57:31.526Z,60.11
2019-02-21T08:00:03.380Z,60.09
2019-02-21T08:02:35.114Z,60.05
2019-02-21T08:05:08.013Z,60.00
2019-02-21T08:07:39.712Z,60.02
2019-02-21T08:10:12.583Z,60.01
2019-02-21T08:12:45.479Z,59.99
2019-02-21T08:15:17.136Z,59.94
2019-02-21T08:17:48.776Z,59.95
2019-02-21T08:20:21.099Z,59.90
2019-02-21T08:22:53.134Z,59.87
2019-02-21T08:25:24.827Z,59.86
2019-02-21T08:27:56.798Z,59.87
2019-02-21T08:30:29.380Z,59.83
2019-02-21T08:33:12.348Z,59.77
2019-02-21T08:35:43.966Z,59.75
2019-02-21T08:38:16.041Z,59.75
2019-02-21T08:40:47.749Z,59.77
2019-02-21T08:43:19.413Z,59.76
2019-02-21T08:45:51.102Z,59.75
2019-02-21T08:48:23.063Z,59.77
2019-02-21T08:50:54.725Z,59.79
2019-02-21T08:53:28.098Z,59.77
2019-02-21T08:55:59.968Z,59.74
2019-02-21T08:58:31.866Z,59.73
2019-02-21T09:01:03.603Z,59.73
2019-02-21T09:03:35.263Z,59.77
2019-02-21T09:06:06.951Z,59.80
2019-02-21T09:08:39.522Z,59.78
2019-02-21T09:11:11.642Z,59.75
2019-02-21T09:13:43.283Z,59.63
2019-02-21T09:16:17.670Z,59.55
2019-02-21T09:18:48.313Z,59.54
2019-02-21T09:21:20.782Z,59.46
2019-02-21T09:23:52.752Z,59.46
2019-02-21T09:26:24.534Z,59.43
2019-02-21T09:28:58.517Z,59.36
2019-02-21T09:31:29.592Z,59.23
2019-02-21T09:34:01.367Z,59.10
2019-02-21T09:36:33.076Z,59.02
2019-02-21T09:39:05.869Z,58.94
2019-02-21T09:41:37.500Z,58.88
2019-02-21T09:44:09.684Z,58.80
2019-02-21T09:46:41.668Z,58.74
2019-02-21T09:49:13.497Z,58.67
2019-02-21T09:51:45.247Z,58.66
2019-02-21T09:54:19.191Z,58.63
2019-02-21T09:56:53.048Z,58.57
2019-02-21T09:59:24.582Z,58.49
2019-02-21T10:01:57.633Z,58.38
2019-02-21T10:04:32.420Z,58.38
2019-02-21T10:07:03.038Z,58.33
2019-02-21T10:09:35.886Z,58.23
2019-02-21T10:12:07.528Z,58.01
2019-02-21T10:14:39.150Z,57.83
2019-02-21T10:17:11.468Z,57.71
2019-02-21T10:19:43.409Z,57.68
2019-02-21T10:22:16.185Z,57.67
2019-02-21T10:24:50.132Z,57.64
2019-02-21T10:27:21.736Z,57.60
2019-02-21T10:29:53.507Z,57.54
2019-02-21T10:32:25.138Z,57.46
2019-02-21T10:34:56.789Z,57.31
2019-02-21T10:37:28.549Z,57.20
2019-02-21T10:40:00.333Z,57.18
2019-02-21T10:42:32.204Z,57.06
2019-02-21T10:45:04.909Z,57.04
2019-02-21T10:47:36.622Z,57.00
2019-02-21T10:50:14.045Z,56.87
2019-02-21T10:52:45.810Z,56.81
2019-02-21T10:55:19.403Z,56.71
2019-02-21T10:57:52.750Z,56.65
2019-02-21T11:00:28.759Z,56.60
2019-02-21T11:03:00.674Z,56.60
2019-02-21T11:05:32.582Z,56.47
2019-02-21T11:08:04.246Z,56.37
2019-02-21T11:10:36.207Z,56.25
2019-02-21T11:13:08.276Z,56.04
2019-02-21T11:15:42.065Z,55.92
2019-02-21T11:18:14.114Z,55.80
2019-02-21T11:20:45.745Z,55.68
2019-02-21T11:23:18.058Z,55.55
2019-02-21T11:25:49.838Z,55.26
2019-02-21T11:28:21.589Z,55.10
2019-02-21T11:30:53.232Z,54.97
2019-02-21T11:33:24.908Z,54.86
2019-02-21T11:35:56.713Z,54.62
2019-02-21T11:38:28.436Z,54.52
2019-02-21T11:41:00.077Z,54.41
2019-02-21T11:43:32.206Z,54.37
2019-02-21T11:46:04.265Z,54.30
2019-02-21T11:48:36.134Z,54.26
2019-02-21T11:51:10.636Z,54.20
2019-02-21T11:53:42.305Z,54.14
2019-02-21T11:56:15.841Z,54.08
2019-02-21T11:58:47.993Z,53.98
2019-02-21T12:01:19.839Z,53.92
2019-02-21T12:03:53.087Z,53.84
2019-02-21T12:06:24.736Z,53.74
2019-02-21T12:08:56.610Z,53.68
2019-02-21T12:11:28.446Z,53.59
2019-02-21T12:14:00.083Z,53.49
2019-02-21T12:16:38.676Z,53.46
2019-02-21T12:19:10.869Z,53.34
2019-02-21T12:21:42.532Z,53.23
2019-02-21T12:24:14.381Z,53.19
2019-02-21T12:26:46.106Z,53.08
2019-02-21T12:29:18.289Z,52.96
2019-02-21T12:31:51.649Z,52.73
2019-02-21T12:34:23.873Z,52.67
2019-02-21T12:36:55.658Z,52.54
2019-02-21T12:39:27.350Z,52.48
2019-02-21T12:41:59.148Z,52.37
2019-02-21T12:44:30.851Z,52.25
2019-02-21T12:47:02.596Z,52.22
2019-02-21T12:49:34.524Z,52.12
2019-02-21T12:52:06.544Z,52.05
2019-02-21T12:54:38.198Z,52.00
2019-02-21T12:57:11.193Z,51.92
2019-02-21T12:59:43.130Z,51.87
2019-02-21T13:02:15.843Z,51.84
2019-02-21T13:04:47.601Z,51.79
2019-02-21T13:07:19.713Z,51.76
2019-02-21T13:09:52.169Z,51.75
2019-02-21T13:12:24.082Z,51.71
2019-02-21T13:14:55.746Z,51.68
2019-02-21T13:17:27.443Z,51.65
2019-02-21T13:19:59.124Z,51.60
2019-02-21T13:22:31.216Z,51.61
2019-02-21T13:25:02.905Z,51.58
2019-02-21T13:27:34.581Z,51.59
2019-02-21T13:30:15.558Z,51.53
2019-02-21T13:32:47.287Z,51.48
2019-02-21T13:35:19.116Z,51.36
2019-02-21T13:37:51.240Z,51.27
2019-02-21T13:40:22.937Z,51.14
2019-02-21T13:42:54.804Z,51.02
2019-02-21T13:45:26.786Z,50.96
2019-02-21T13:47:58.534Z,50.90
2019-02-21T13:50:30.674Z,50.84
2019-02-21T13:53:03.122Z,50.75
2019-02-21T13:55:34.768Z,50.66
2019-02-21T13:58:06.791Z,50.65
2019-02-21T14:00:38.656Z,50.54
2019-02-21T14:03:10.423Z,50.55
2019-02-21T14:05:42.188Z,50.54
2019-02-21T14:08:14.647Z,50.47
2019-02-21T14:10:46.343Z,50.44
2019-02-21T14:13:18.081Z,50.41
2019-02-21T14:15:49.726Z,50.38
2019-02-21T14:18:24.403Z,50.29
2019-02-21T14:20:56.137Z,50.31
2019-02-21T14:23:28.557Z,50.30
2019-02-21T14:26:00.506Z,50.21
2019-02-21T14:28:32.341Z,50.19
2019-02-21T14:31:04.092Z,50.14
2019-02-21T14:33:35.770Z,50.06
2019-02-21T14:36:15.217Z,50.00
2019-02-21T14:38:42.018Z,50.02
2019-02-21T14:41:13.898Z,50.04
2019-02-21T14:43:45.558Z,50.02
2019-02-21T14:46:17.443Z,50.03
2019-02-21T14:48:50.646Z,50.02
2019-02-21T14:51:22.644Z,49.97
2019-02-21T14:53:54.312Z,49.92
2019-02-21T14:56:26.413Z,49.85
2019-02-21T14:58:58.076Z,49.79
2019-02-21T15:01:29.815Z,49.77
2019-02-21T15:04:01.601Z,49.72
2019-02-21T15:06:33.665Z,49.70
2019-02-21T15:09:06.079Z,49.64
2019-02-21T15:11:40.340Z,49.62
2019-02-21T15:14:12.017Z,49.57
2019-02-21T15:16:44.337Z,49.51
2019-02-21T15:19:16.326Z,49.48
2019-02-21T15:21:48.366Z,49.48
2019-02-21T15:24:20.192Z,49.47
2019-02-21T15:26:52.431Z,49.43
2019-02-21T15:29:24.066Z,49.36
2019-02-21T15:31:56.012Z,49.33
2019-02-21T15:34:27.750Z,49.30
2019-02-21T15:36:59.572Z,49.30
2019-02-21T15:39:51.856Z,49.30
2019-02-21T15:42:24.265Z,49.39
2019-02-21T15:44:56.159Z,49.46
2019-02-21T15:47:27.866Z,49.50
2019-02-21T15:49:59.617Z,49.52
2019-02-21T15:52:31.512Z,49.56
2019-02-21T15:55:11.846Z,49.59
2019-02-21T15:57:37.850Z,49.65
2019-02-21T16:00:12.423Z,49.67
2019-02-21T16:02:44.114Z,49.66
2019-02-21T16:05:15.922Z,49.68
2019-02-21T16:07:47.617Z,49.67
2019-02-21T16:10:21.719Z,49.68
2019-02-21T16:12:54.337Z,49.65
2019-02-21T16:15:26.175Z,49.64
2019-02-21T16:17:58.612Z,49.56
2019-02-21T16:20:30.404Z,49.55
2019-02-21T16:23:02.364Z,49.55
2019-02-21T16:25:34.101Z,49.49
2019-02-21T16:28:06.636Z,49.49
2019-02-21T16:30:38.398Z,49.48
2019-02-21T16:33:10.096Z,49.50
2019-02-21T16:35:42.120Z,49.54
2019-02-21T16:38:14.101Z,49.58
2019-02-21T16:40:45.857Z,49.63
2019-02-21T16:43:17.604Z,49.70
2019-02-21T16:45:53.675Z,49.72
2019-02-21T16:48:22.999Z,49.76
2019-02-21T16:50:56.500Z,49.80
2019-02-21T16:53:28.199Z,49.87
2019-02-21T16:55:59.910Z,49.98
2019-02-21T16:58:31.617Z,50.05
2019-02-21T17:01:04.164Z,50.15
2019-02-21T17:03:35.903Z,50.21
2019-02-21T17:06:08.054Z,50.25
2019-02-21T17:08:41.294Z,50.26
2019-02-21T17:11:13.688Z,50.25
2019-02-21T17:13:45.523Z,50.25
2019-02-21T17:16:17.908Z,50.26
2019-02-21T17:18:51.481Z,50.25
2019-02-21T17:21:24.972Z,50.25
2019-02-21T17:23:56.770Z,50.31
2019-02-21T17:26:30.995Z,50.42
2019-02-21T17:29:03.116Z,50.52
2019-02-21T17:31:37.300Z,50.62
2019-02-21T17:34:09.104Z,50.74
2019-02-21T17:36:40.861Z,50.87
2019-02-21T17:39:12.666Z,50.94
2019-02-21T17:41:44.389Z,51.06
2019-02-21T17:44:16.095Z,51.14
2019-02-21T17:46:48.669Z,51.23
2019-02-21T17:49:20.362Z,51.27
2019-02-21T17:51:53.890Z,51.30
2019-02-21T17:54:27.709Z,51.35
2019-02-21T17:56:59.576Z,51.42
2019-02-21T17:59:31.826Z,51.41
2019-02-21T18:02:04.609Z,51.40
2019-02-21T18:04:36.351Z,51.38
2019-02-21T18:07:08.337Z,51.36
2019-02-21T18:09:40.263Z,51.31
2019-02-21T18:12:12.682Z,51.30
2019-02-21T18:14:44.631Z,51.24
2019-02-21T18:17:17.521Z,51.20
2019-02-21T18:19:49.338Z,51.15
2019-02-21T18:22:23.597Z,51.11
2019-02-21T18:24:55.615Z,51.08
2019-02-21T18:27:29.254Z,51.07
2019-02-21T18:30:01.258Z,51.02
2019-02-21T18:32:33.947Z,51.02
2019-02-21T18:35:06.415Z,51.03
2019-02-21T18:37:47.038Z,51.06
2019-02-21T18:40:18.461Z,51.09
2019-02-21T18:42:48.080Z,51.13
2019-02-21T18:45:20.387Z,51.14
2019-02-21T18:47:52.247Z,51.18
2019-02-21T18:50:24.622Z,51.21
2019-02-21T18:52:56.444Z,51.24
2019-02-21T18:55:28.538Z,51.28
2019-02-21T18:58:00.326Z,51.32
2019-02-21T19:00:33.394Z,51.37
2019-02-21T19:03:05.196Z,51.42
2019-02-21T19:05:38.067Z,51.45
2019-02-21T19:08:10.592Z,51.46
2019-02-21T19:10:43.337Z,51.50
2019-02-21T19:13:15.270Z,51.52
2019-02-21T19:15:47.086Z,51.54
2019-02-21T19:18:18.938Z,51.55
2019-02-21T19:20:51.924Z,51.57
2019-02-21T19:23:24.139Z,51.59
2019-02-21T19:25:56.435Z,51.58
2019-02-21T19:28:28.262Z,51.59
2019-02-21T19:31:05.767Z,51.55
2019-02-21T19:33:39.415Z,51.53
2019-02-21T19:36:12.056Z,51.53
2019-02-21T19:38:43.979Z,51.52
2019-02-21T19:41:15.943Z,51.49
2019-02-21T19:43:47.817Z,51.47
2019-02-21T19:46:19.836Z,51.47
2019-02-21T19:48:51.621Z,51.48
2019-02-21T19:51:24.408Z,51.48
2019-02-21T19:53:56.422Z,51.50
2019-02-21T19:56:28.572Z,51.51
2019-02-21T19:59:00.648Z,51.55
2019-02-21T20:01:32.585Z,51.59
2019-02-21T20:04:04.458Z,51.62
2019-02-21T20:06:37.321Z,51.65
2019-02-21T20:09:09.810Z,51.68
2019-02-21T20:11:41.819Z,51.68
2019-02-21T20:14:13.764Z,51.74
2019-02-21T20:16:46.036Z,51.82
2019-02-21T20:19:18.712Z,51.88
2019-02-21T20:21:51.313Z,51.95
2019-02-21T20:24:28.365Z,52.02
2019-02-21T20:27:01.124Z,52.05
2019-02-21T20:29:32.973Z,52.07
2019-02-21T20:32:05.088Z,52.08
2019-02-21T20:34:37.747Z,52.09
2019-02-21T20:37:11.528Z,52.11
2019-02-21T20:39:44.618Z,52.13
2019-02-21T20:42:17.689Z,52.16
2019-02-21T20:44:49.735Z,52.20
2019-02-21T20:47:21.840Z,52.25
2019-02-21T20:49:57.613Z,52.34
2019-02-21T20:52:30.025Z,52.41
2019-02-21T20:55:02.107Z,52.45
2019-02-21T20:57:34.855Z,52.51
2019-02-21T21:00:09.408Z,52.56
2019-02-21T21:02:42.154Z,52.57
2019-02-21T21:05:16.857Z,52.56
2019-02-21T21:07:50.841Z,52.57
2019-02-21T21:10:23.465Z,52.59
2019-02-21T21:12:56.195Z,52.58
2019-02-21T21:15:28.440Z,52.59
2019-02-21T21:18:00.163Z,52.59
2019-02-21T21:20:32.309Z,52.58
2019-02-21T21:23:06.229Z,52.58
2019-02-21T21:25:39.738Z,52.56
2019-02-21T21:28:11.631Z,52.54
2019-02-21T21:30:43.651Z,52.54
2019-02-21T21:33:15.689Z,52.56
2019-02-21T21:35:49.820Z,52.60
2019-02-21T21:38:24.386Z,52.62
2019-02-21T21:40:56.386Z,52.67
2019-02-21T21:43:29.935Z,52.72
2019-02-21T21:46:02.350Z,52.74
2019-02-21T21:48:35.190Z,52.74
2019-02-21T21:51:11.459Z,52.74
2019-02-21T21:53:43.636Z,52.76
2019-02-21T21:56:17.578Z,52.75
2019-02-21T21:58:49.424Z,52.71
2019-02-21T22:01:21.683Z,52.71
2019-02-21T22:03:59.808Z,52.71
2019-02-21T22:06:31.710Z,52.68
2019-02-21T22:09:05.239Z,52.68
2019-02-21T22:11:38.304Z,52.70
2019-02-21T22:14:10.733Z,52.71
2019-02-21T22:16:45.729Z,52.72
2019-02-21T22:19:19.985Z,52.74
2019-02-21T22:21:55.420Z,52.75
2019-02-21T22:24:28.861Z,52.76
2019-02-21T22:27:24.815Z,52.76
2019-02-21T22:29:58.978Z,52.75
2019-02-21T22:32:31.768Z,52.77
2019-02-21T22:35:10.430Z,52.77
2019-02-21T22:37:46.634Z,52.81
2019-02-21T22:40:20.919Z,52.83
2019-02-21T22:42:55.403Z,52.84
2019-02-21T22:45:27.486Z,52.83
2019-02-21T22:47:59.631Z,52.85
2019-02-21T22:50:31.843Z,52.86
2019-02-21T22:53:03.526Z,52.87
2019-02-21T22:55:35.622Z,52.87
2019-02-21T22:58:08.017Z,52.89
2019-02-21T23:01:20.266Z,52.92
2019-02-21T23:04:28.462Z,52.93
2019-02-21T23:07:13.344Z,52.92
2019-02-21T23:09:45.440Z,52.95
2019-02-21T23:12:17.973Z,52.99
2019-02-21T23:14:49.967Z,53.07
2019-02-21T23:17:21.714Z,53.18
2019-02-21T23:19:53.759Z,53.27
2019-02-21T23:22:26.709Z,53.32
2019-02-21T23:24:58.394Z,53.39
2019-02-21T23:27:37.080Z,53.43
2019-02-21T23:30:17.238Z,53.52
2019-02-21T23:32:52.506Z,53.56
2019-02-21T23:35:24.671Z,53.62
2019-02-21T23:37:56.878Z,53.64
2019-02-21T23:40:29.592Z,53.73
2019-02-21T23:43:01.315Z,53.82
2019-02-21T23:45:33.674Z,53.84
2019-02-21T23:48:05.686Z,53.89
2019-02-21T23:50:37.390Z,53.91
2019-02-21T23:53:09.444Z,53.92
2019-02-21T23:55:41.344Z,53.92
2019-02-21T23:58:13.092Z,53.89
